SAZM/MDD METAR and TAF weather

Enter ICAO airport designator
Station Type Date Time Source
SAZM METAR 2020/04/10 18:00 UTC NOAA

SAZM 101800Z 07010KT 030V100 9999 FEW038 19/13 Q1022


Station Type Date Time Source
SAZM Decoded METAR 2020/04/10 18:00 UTC NOAA

Mar Del Plata Aerodrome, Argentina (SAZM) 37-56S 057-35W 21M
Apr 10, 2020 - 02:00 PM EDT / 2020.04.10 1800 UTC
Wind: from the ENE (070 degrees) at 12 MPH (10 KT) (direction variable):0
Visibility: greater than 7 mile(s):0
Sky conditions: mostly clear
Temperature: 66 F (19 C)
Dew Point: 55 F (13 C)
Relative Humidity: 68%
Pressure (altimeter): 30.18 in. Hg (1022 hPa)
ob: SAZM 101800Z 07010KT 030V100 9999 FEW038 19/13 Q1022
cycle: 18

Station Type Date Time Source
SAZM TAF 2020/04/10 18:15 UTC NOAA

TAF TAF SAZM 101700Z 1018/1118 07015KT 9999 SCT035 TX22/1118Z TN07/1109Z
BECMG 1019/1020 CAVOK
BECMG 1103/1106 36010KT 5000 BR SCT020
TEMPO 1109/1111 0800 FG SCT010
BECMG 1112/1114 34015KT CAVOK

Example: see airport list